createdAt,value
2019-01-30T00:03:15.821Z,24.23
2019-01-30T00:08:19.381Z,23.40
2019-01-30T00:13:28.735Z,24.77
2019-01-30T00:18:35.245Z,19.90
2019-01-30T00:23:38.683Z,19.07
2019-01-30T00:28:41.870Z,20.13
2019-01-30T00:33:45.458Z,23.23
2019-01-30T00:38:48.800Z,21.03
2019-01-30T00:43:52.002Z,17.73
2019-01-30T00:48:55.493Z,19.23
2019-01-30T00:54:01.566Z,19.33
2019-01-30T00:59:04.981Z,16.90
2019-01-30T01:04:08.330Z,23.60
2019-01-30T01:09:11.632Z,27.43
2019-01-30T01:14:15.117Z,18.77
2019-01-30T01:19:18.471Z,20.77
2019-01-30T01:24:21.862Z,18.30
2019-01-30T01:29:28.325Z,18.60
2019-01-30T01:34:31.738Z,17.97
2019-01-30T01:39:38.081Z,24.20
2019-01-30T01:44:41.390Z,19.20
2019-01-30T01:49:44.845Z,18.87
2019-01-30T01:54:48.096Z,18.57
2019-01-30T01:59:51.410Z,21.10
2019-01-30T02:04:57.268Z,20.63
2019-01-30T02:10:00.462Z,18.00
2019-01-30T02:15:05.937Z,20.90
2019-01-30T02:20:12.014Z,20.80
2019-01-30T02:25:15.499Z,17.53
2019-01-30T02:30:23.901Z,18.87
2019-01-30T02:35:27.269Z,18.80
2019-01-30T02:40:33.615Z,16.53
2019-01-30T02:45:40.306Z,19.50
2019-01-30T02:50:46.888Z,20.53
2019-01-30T02:55:59.366Z,18.03
2019-01-30T03:01:20.853Z,18.83
2019-01-30T03:06:31.404Z,18.80
2019-01-30T03:11:34.949Z,17.10
2019-01-30T03:16:38.464Z,19.07
2019-01-30T03:21:49.248Z,19.73
2019-01-30T03:26:55.072Z,19.50
2019-01-30T03:32:04.350Z,18.57
2019-01-30T03:37:10.853Z,18.80
2019-01-30T03:42:14.105Z,20.57
2019-01-30T03:47:20.268Z,19.33
2019-01-30T03:52:42.703Z,17.47
2019-01-30T03:57:46.221Z,19.10
2019-01-30T04:02:52.852Z,17.97
2019-01-30T04:07:56.291Z,22.40
2019-01-30T04:12:59.663Z,22.27
2019-01-30T04:18:02.970Z,18.07
2019-01-30T04:23:08.972Z,17.37
2019-01-30T04:28:12.354Z,18.80
2019-01-30T04:33:15.575Z,25.77
2019-01-30T04:38:18.776Z,22.97
2019-01-30T04:43:22.567Z,17.27
2019-01-30T04:48:25.908Z,20.90
2019-01-30T04:53:29.212Z,17.50
2019-01-30T04:58:32.541Z,21.30
2019-01-30T05:03:38.935Z,21.53
2019-01-30T05:08:48.236Z,22.70
2019-01-30T05:13:51.778Z,18.47
2019-01-30T05:18:58.075Z,18.37
2019-01-30T05:24:01.470Z,17.87
2019-01-30T05:29:06.181Z,18.87
2019-01-30T05:34:11.839Z,18.63
2019-01-30T05:39:15.212Z,18.07
2019-01-30T05:44:18.616Z,19.00
2019-01-30T05:49:22.183Z,15.50
2019-01-30T05:54:25.628Z,21.00
2019-01-30T05:59:31.889Z,19.67
2019-01-30T06:04:35.391Z,19.27
2019-01-30T06:09:38.902Z,18.70
2019-01-30T06:14:42.342Z,16.73
2019-01-30T06:19:45.683Z,20.67
2019-01-30T06:24:49.246Z,19.73
2019-01-30T06:29:52.864Z,17.83
2019-01-30T06:34:56.754Z,16.23
2019-01-30T06:40:00.200Z,16.83
2019-01-30T06:45:03.764Z,17.10
2019-01-30T06:50:12.023Z,15.97
2019-01-30T06:55:15.478Z,18.13
2019-01-30T07:00:23.420Z,18.20
2019-01-30T07:05:26.995Z,14.17
2019-01-30T07:10:30.346Z,16.50
2019-01-30T07:15:33.748Z,17.27
2019-01-30T07:20:40.145Z,17.20
2019-01-30T07:25:44.338Z,17.67
2019-01-30T07:30:47.952Z,18.10
2019-01-30T07:35:54.365Z,17.60
2019-01-30T07:40:57.693Z,17.00
2019-01-30T07:46:01.231Z,16.13
2019-01-30T07:51:04.771Z,17.20
2019-01-30T07:56:08.291Z,16.83
2019-01-30T08:01:14.391Z,17.80
2019-01-30T08:06:19.590Z,16.47
2019-01-30T08:11:23.065Z,18.77
2019-01-30T08:16:26.404Z,17.87
2019-01-30T08:21:29.966Z,14.67
2019-01-30T08:26:33.729Z,13.70
2019-01-30T08:31:39.240Z,13.93
2019-01-30T08:36:42.615Z,15.73
2019-01-30T08:41:45.965Z,12.50
2019-01-30T08:46:49.414Z,14.83
2019-01-30T08:51:52.857Z,13.27
2019-01-30T08:56:56.240Z,14.67
2019-01-30T09:02:00.865Z,14.07
2019-01-30T09:07:04.361Z,14.77
2019-01-30T09:12:07.976Z,17.27
2019-01-30T09:17:11.334Z,14.47
2019-01-30T09:22:14.907Z,10.93
2019-01-30T09:27:18.293Z,13.37
2019-01-30T09:32:26.339Z,11.37
2019-01-30T09:37:29.680Z,10.43
2019-01-30T09:42:33.266Z,10.90
2019-01-30T09:47:36.904Z,12.83
2019-01-30T09:52:40.284Z,11.87
2019-01-30T09:57:45.633Z,10.57
2019-01-30T10:02:48.905Z,9.70
2019-01-30T10:07:55.158Z,10.97
2019-01-30T10:12:57.882Z,9.97
2019-01-30T10:18:04.619Z,10.40
2019-01-30T10:23:07.800Z,8.70
2019-01-30T10:28:16.701Z,10.23
2019-01-30T10:33:16.611Z,14.13
2019-01-30T10:38:23.021Z,12.17
2019-01-30T10:43:29.271Z,12.77
2019-01-30T10:48:32.581Z,11.97
2019-01-30T10:53:36.130Z,11.13
2019-01-30T10:58:39.509Z,10.33
2019-01-30T11:03:42.964Z,13.10
2019-01-30T11:09:02.976Z,13.03
2019-01-30T11:14:06.620Z,10.10
2019-01-30T11:19:10.162Z,8.50
2019-01-30T11:24:19.616Z,8.73
2019-01-30T11:29:23.658Z,12.43
2019-01-30T11:34:26.991Z,8.70
2019-01-30T11:39:33.196Z,10.37
2019-01-30T11:44:36.610Z,7.13
2019-01-30T11:49:39.876Z,9.07
2019-01-30T11:54:43.016Z,11.73
2019-01-30T11:59:46.486Z,7.50
2019-01-30T12:04:52.380Z,9.57
2019-01-30T12:09:58.753Z,5.83
2019-01-30T12:15:02.134Z,6.80
2019-01-30T12:20:07.397Z,10.33
2019-01-30T12:25:12.207Z,8.83
2019-01-30T12:30:23.024Z,5.67
2019-01-30T12:35:26.285Z,5.30
2019-01-30T12:40:29.474Z,7.93
2019-01-30T12:45:33.541Z,4.07
2019-01-30T12:50:40.058Z,4.20
2019-01-30T12:55:43.573Z,4.73
2019-01-30T13:00:47.783Z,6.40
2019-01-30T13:05:51.038Z,6.57
2019-01-30T13:10:54.366Z,3.30
2019-01-30T13:15:57.657Z,7.50
2019-01-30T13:21:00.981Z,2.40
2019-01-30T13:26:04.829Z,4.60
2019-01-30T13:31:11.148Z,4.33
2019-01-30T13:36:14.493Z,5.30
2019-01-30T13:41:17.799Z,3.90
2019-01-30T13:46:21.340Z,6.47
2019-01-30T13:51:30.657Z,5.93
2019-01-30T13:56:34.069Z,8.57
2019-01-30T14:01:37.313Z,4.47
2019-01-30T14:06:40.795Z,3.47
2019-01-30T14:11:44.144Z,4.60
2019-01-30T14:16:47.458Z,4.17
2019-01-30T14:21:52.239Z,2.97
2019-01-30T14:26:58.652Z,6.43
2019-01-30T14:32:02.109Z,3.17
2019-01-30T14:37:08.284Z,3.93
2019-01-30T14:42:11.835Z,3.27
2019-01-30T14:47:15.344Z,3.10
2019-01-30T14:52:19.002Z,4.40
2019-01-30T14:57:25.467Z,3.20
2019-01-30T15:02:31.953Z,4.53
2019-01-30T15:07:35.280Z,5.90
2019-01-30T15:12:40.956Z,4.03
2019-01-30T15:17:44.541Z,6.10
2019-01-30T15:22:55.615Z,5.67
2019-01-30T15:28:01.998Z,4.13
2019-01-30T15:33:05.927Z,7.00
2019-01-30T15:38:13.843Z,5.13
2019-01-30T15:43:17.179Z,5.00
2019-01-30T15:48:20.406Z,6.20
2019-01-30T15:53:24.741Z,7.17
2019-01-30T15:58:28.152Z,7.60
2019-01-30T16:03:31.472Z,10.73
2019-01-30T16:08:34.888Z,7.03
2019-01-30T16:13:38.169Z,7.00
2019-01-30T16:18:44.331Z,6.23
2019-01-30T16:23:52.068Z,6.57
2019-01-30T16:28:55.754Z,6.80
2019-01-30T16:33:59.373Z,6.53
2019-01-30T16:39:04.639Z,9.10
2019-01-30T16:44:07.990Z,10.33
2019-01-30T16:49:11.408Z,7.10
2019-01-30T16:54:14.933Z,6.60
2019-01-30T16:59:18.200Z,6.60
2019-01-30T17:04:27.732Z,10.40
2019-01-30T17:09:32.539Z,9.53
2019-01-30T17:14:35.864Z,10.40
2019-01-30T17:19:39.136Z,8.60
2019-01-30T17:24:42.769Z,10.70
2019-01-30T17:29:46.229Z,9.80
2019-01-30T17:34:55.504Z,10.53
2019-01-30T17:39:58.994Z,11.30
2019-01-30T17:45:02.746Z,10.10
2019-01-30T17:50:06.785Z,11.97
2019-01-30T17:55:10.225Z,9.93
2019-01-30T18:00:37.116Z,11.50
2019-01-30T18:05:40.634Z,10.63
2019-01-30T18:10:44.089Z,9.80
2019-01-30T18:15:48.889Z,12.73
2019-01-30T18:20:52.303Z,12.07
2019-01-30T18:25:55.406Z,9.90
2019-01-30T18:31:00.667Z,14.50
2019-01-30T18:36:04.191Z,12.30
2019-01-30T18:41:09.581Z,12.83
2019-01-30T18:46:19.327Z,16.93
2019-01-30T18:51:22.713Z,17.00
2019-01-30T18:56:26.055Z,20.67
2019-01-30T19:01:32.145Z,16.07
2019-01-30T19:06:35.538Z,20.30
2019-01-30T19:11:40.461Z,17.10
2019-01-30T19:16:53.205Z,23.90
2019-01-30T19:22:01.353Z,20.67
2019-01-30T19:27:07.494Z,23.73
2019-01-30T19:32:11.009Z,20.60
2019-01-30T19:37:14.537Z,19.63
2019-01-30T19:42:17.935Z,26.00
2019-01-30T19:47:21.351Z,26.40
2019-01-30T19:52:24.831Z,22.47
2019-01-30T19:57:28.385Z,25.20
2019-01-30T20:02:31.611Z,24.33
2019-01-30T20:07:34.948Z,26.20
2019-01-30T20:12:41.282Z,24.67
2019-01-30T20:17:44.698Z,25.20
2019-01-30T20:22:50.774Z,30.00
2019-01-30T20:27:54.392Z,23.00
2019-01-30T20:32:57.897Z,23.70
2019-01-30T20:38:03.676Z,26.13
2019-01-30T20:43:07.125Z,26.40
2019-01-30T20:48:10.413Z,24.23
2019-01-30T20:53:13.672Z,21.07
2019-01-30T20:58:17.056Z,21.97
2019-01-30T21:03:20.350Z,20.87
2019-01-30T21:08:23.735Z,24.23
2019-01-30T21:13:30.118Z,21.50
2019-01-30T21:18:35.960Z,21.90
2019-01-30T21:23:42.110Z,24.27
2019-01-30T21:28:45.504Z,23.07
2019-01-30T21:33:49.647Z,21.90
2019-01-30T21:38:53.219Z,20.73
2019-01-30T21:43:56.838Z,20.17
2019-01-30T21:49:00.172Z,21.97
2019-01-30T21:54:06.681Z,22.80
2019-01-30T21:59:10.098Z,24.80
2019-01-30T22:04:13.297Z,20.17
2019-01-30T22:09:16.612Z,21.57
2019-01-30T22:14:20.003Z,21.47
2019-01-30T22:19:26.092Z,22.00
2019-01-30T22:24:29.464Z,21.13
2019-01-30T22:29:32.796Z,22.40
2019-01-30T22:34:36.039Z,20.23
2019-01-30T22:39:39.323Z,21.47
2019-01-30T22:44:42.811Z,21.30
2019-01-30T22:49:46.150Z,21.37
2019-01-30T22:54:49.197Z,23.30
2019-01-30T22:59:54.105Z,21.57
2019-01-30T23:05:27.180Z,22.10
2019-01-30T23:11:01.934Z,20.80
2019-01-30T23:16:51.853Z,23.43
2019-01-30T23:22:54.299Z,26.73
2019-01-30T23:27:58.049Z,24.23
2019-01-30T23:33:28.008Z,21.70
2019-01-30T23:39:20.649Z,19.03
2019-01-30T23:44:56.648Z,24.13
2019-01-30T23:50:33.243Z,22.53
2019-01-30T23:56:11.035Z,20.20
